Pronóstico
Mapa Interactivo
Aviación
Climatología
Hidrometeorología
Agrometeorología
Estaciones Automáticas
Transparencia
OMM WMO
Portada
Institución
Noticias
Imágenes
Tsunami
Historial
Boletines y Alertas
Contactos
Buscar Contenidos
Informe del Tiempo

                                                                               

SANTO DOMINGO 20 DE AGOSTO DEL 2018

                                                                                           AEROP. INT. LAS AMERICAS JFPG-

 

FTDR31 MDSD 201600Z
TAF 

TAF MDPP 201600Z 2018/2118 06012KT 9999 SCT022 PROB30 2018/2100 8000 –TSSH FEW016CB BKN017=  

TAF MDST 201600Z 2018/2118 12012KT 9999 SCT020 BPOB30 2020/2102 7000 SHRA FEW018CB BKN018=

TAF MDPC 201600Z 2018/2118 11010KT 9999 FEW016CB SCT018 SCT080 PROB30 2018/2100 5000 TSRA FEW012CB SCT015 BKN070=

TAF MDBH 201600Z 2018/2118 13014KT 9999 FEW020CB SCT022 SCT080 BKN300 PROB30 2019/2102 7000 -RA FEW016CB BKN016 OVC070=

TAF MDJB 201600Z 2018/2118 09008KT 9999 SCT020 PROB40 2020/2102 7000 -TSRA FEW016CB BKN018 BKN070=

TAF MDSD 201600Z 2018/2118 13006KT 9999 FEW018CB SCT016 PROB40 2018/2100 7000 -TSRA FEW016CB BKN018 BKN070=

TAF MDLR 201600Z 2018/2118 14010KT 9999 FEW018CB SCT022 SCT080 PROB40 TEMPO 2018/2023 7000 –TSRA FEW014CB BKN16 SCT070 BECMG 2100/2102 00000KT=

TAF MDCY 201600Z 2018/2118 08010KT 9999 SCT018 SCT070 PROB40 2019/2023 7000 -TSSH FEW016CB BKN018 BKN070=

 

MDPP AEROPUERTO INTERNACIONAL LA UNION PUERTO PLATA

MDST AEROPUERTO INTERNACIONAL DE SANTIAGO

MDPC AEROPUERTO INTERNACIONAL PUNTA CANA

MDBH AEROPUERTO INTERNACIONAL DE BARAHONA

MDJB AEROPUERTO INTERNACIONAL JOAQUIN BALAGUER

MDSD AEROPUERTO INTERNACIONAL LAS AMERICAS

MDLR AEROPUERTO INTERNACIONAL LA ROMANA

MDCY AEROPUERTO INTERNACIONAL DE CATEY

 

ARISLEYDA DE LA CRUZ DONNATORG .

 MDPP// O.GUZMAN

MDST// S.POLANCO

MDPC// ROSA INES V.

MDBH// MENDEZ

 MDJB// DORIS C

MDLR// VALLOY

MDCY//ISAIAS L